sensor_id;sensor_type;location;lat;lon;timestamp;temperature;humidity
4207;DHT22;2117;47.972;7.830;2023-11-21T14:23:51;11.00;99.90
4207;DHT22;2117;47.972;7.830;2023-11-21T14:26:17;10.70;99.90
4207;DHT22;2117;47.972;7.830;2023-11-21T14:28:43;10.60;99.90
4207;DHT22;2117;47.972;7.830;2023-11-21T14:31:09;10.40;99.90
4207;DHT22;2117;47.972;7.830;2023-11-21T14:33:40;10.30;99.90
4207;DHT22;2117;47.972;7.830;2023-11-21T14:36:07;10.30;99.90
4207;DHT22;2117;47.972;7.830;2023-11-21T14:38:38;10.20;99.90
4207;DHT22;2117;47.972;7.830;2023-11-21T14:41:05;10.20;99.90
4207;DHT22;2117;47.972;7.830;2023-11-21T14:43:35;10.20;99.90
4207;DHT22;2117;47.972;7.830;2023-11-21T14:46:02;10.20;99.90
4207;DHT22;2117;47.972;7.830;2023-11-21T14:48:35;10.20;99.90
4207;DHT22;2117;47.972;7.830;2023-11-21T14:51:09;10.10;99.90
4207;DHT22;2117;47.972;7.830;2023-11-21T14:53:54;10.10;99.90
4207;DHT22;2117;47.972;7.830;2023-11-21T14:56:23;10.10;99.90
4207;DHT22;2117;47.972;7.830;2023-11-21T14:58:55;10.00;99.90
4207;DHT22;2117;47.972;7.830;2023-11-21T15:01:23;10.00;99.90
4207;DHT22;2117;47.972;7.830;2023-11-21T15:04:07;9.90;99.90
4207;DHT22;2117;47.972;7.830;2023-11-21T15:06:34;9.90;99.90
4207;DHT22;2117;47.972;7.830;2023-11-21T15:09:00;9.80;99.90
4207;DHT22;2117;47.972;7.830;2023-11-21T15:11:32;9.80;99.90
4207;DHT22;2117;47.972;7.830;2023-11-21T15:13:58;9.80;99.90
4207;DHT22;2117;47.972;7.830;2023-11-21T15:16:24;9.80;99.90
4207;DHT22;2117;47.972;7.830;2023-11-21T15:18:54;9.70;99.90
4207;DHT22;2117;47.972;7.830;2023-11-21T15:21:23;9.70;99.90
4207;DHT22;2117;47.972;7.830;2023-11-21T15:23:49;10.10;99.90
4207;DHT22;2117;47.972;7.830;2023-11-21T15:26:16;10.70;99.90
4207;DHT22;2117;47.972;7.830;2023-11-21T15:28:41;10.70;99.90
4207;DHT22;2117;47.972;7.830;2023-11-21T15:31:07;10.60;99.90
4207;DHT22;2117;47.972;7.830;2023-11-21T15:33:34;10.30;99.90
4207;DHT22;2117;47.972;7.830;2023-11-21T15:36:01;10.20;99.90
4207;DHT22;2117;47.972;7.830;2023-11-21T15:38:27;10.00;99.90
4207;DHT22;2117;47.972;7.830;2023-11-21T15:40:53;9.90;99.90
4207;DHT22;2117;47.972;7.830;2023-11-21T15:43:20;9.90;99.90
4207;DHT22;2117;47.972;7.830;2023-11-21T15:45:45;9.80;99.90
4207;DHT22;2117;47.972;7.830;2023-11-21T15:48:11;9.80;99.90
4207;DHT22;2117;47.972;7.830;2023-11-21T15:50:37;9.70;99.90
4207;DHT22;2117;47.972;7.830;2023-11-21T15:53:02;9.70;99.90
4207;DHT22;2117;47.972;7.830;2023-11-21T15:55:31;9.60;99.90
4207;DHT22;2117;47.972;7.830;2023-11-21T15:57:57;9.60;99.90
4207;DHT22;2117;47.972;7.830;2023-11-21T16:00:23;9.60;99.90
4207;DHT22;2117;47.972;7.830;2023-11-21T16:02:49;9.60;99.90
4207;DHT22;2117;47.972;7.830;2023-11-21T16:05:15;9.50;99.90
4207;DHT22;2117;47.972;7.830;2023-11-21T16:07:42;9.50;99.90
4207;DHT22;2117;47.972;7.830;2023-11-21T16:10:10;9.50;99.90
4207;DHT22;2117;47.972;7.830;2023-11-21T16:12:42;9.50;99.90
4207;DHT22;2117;47.972;7.830;2023-11-21T16:15:08;9.50;99.90
4207;DHT22;2117;47.972;7.830;2023-11-21T16:17:35;9.50;99.90
4207;DHT22;2117;47.972;7.830;2023-11-21T16:20:05;9.40;99.90
4207;DHT22;2117;47.972;7.830;2023-11-21T16:22:36;9.40;99.90
4207;DHT22;2117;47.972;7.830;2023-11-21T16:25:02;9.40;99.90
4207;DHT22;2117;47.972;7.830;2023-11-21T16:27:39;9.40;99.90
4207;DHT22;2117;47.972;7.830;2023-11-21T16:30:06;9.40;99.90
4207;DHT22;2117;47.972;7.830;2023-11-21T16:32:34;9.40;99.90
4207;DHT22;2117;47.972;7.830;2023-11-21T16:35:02;9.40;99.90
4207;DHT22;2117;47.972;7.830;2023-11-21T16:37:29;9.40;99.90
4207;DHT22;2117;47.972;7.830;2023-11-21T16:39:54;9.40;99.90
4207;DHT22;2117;47.972;7.830;2023-11-21T16:42:20;9.40;99.90
4207;DHT22;2117;47.972;7.830;2023-11-21T16:44:46;9.40;99.90
4207;DHT22;2117;47.972;7.830;2023-11-21T16:47:12;9.40;99.90
4207;DHT22;2117;47.972;7.830;2023-11-21T16:49:38;9.40;99.90
4207;DHT22;2117;47.972;7.830;2023-11-21T16:52:05;9.40;99.90
4207;DHT22;2117;47.972;7.830;2023-11-21T16:54:32;9.30;99.90
4207;DHT22;2117;47.972;7.830;2023-11-21T16:56:58;9.30;99.90
4207;DHT22;2117;47.972;7.830;2023-11-21T16:59:24;9.40;99.90
4207;DHT22;2117;47.972;7.830;2023-11-21T17:01:50;9.30;99.90
4207;DHT22;2117;47.972;7.830;2023-11-21T17:04:16;9.30;99.90
4207;DHT22;2117;47.972;7.830;2023-11-21T17:06:44;9.30;99.90
4207;DHT22;2117;47.972;7.830;2023-11-21T17:09:11;9.30;99.90
4207;DHT22;2117;47.972;7.830;2023-11-21T17:11:40;9.30;99.90
4207;DHT22;2117;47.972;7.830;2023-11-21T17:14:07;9.20;99.90
4207;DHT22;2117;47.972;7.830;2023-11-21T17:16:34;9.20;99.90
4207;DHT22;2117;47.972;7.830;2023-11-21T17:19:00;9.20;99.90
4207;DHT22;2117;47.972;7.830;2023-11-21T17:21:27;9.30;99.90
4207;DHT22;2117;47.972;7.830;2023-11-21T17:23:54;9.30;99.90
4207;DHT22;2117;47.972;7.830;2023-11-21T17:26:20;9.30;99.90
4207;DHT22;2117;47.972;7.830;2023-11-21T17:28:46;9.30;99.90
4207;DHT22;2117;47.972;7.830;2023-11-21T17:31:11;9.30;99.90
4207;DHT22;2117;47.972;7.830;2023-11-21T17:33:38;9.20;99.90
4207;DHT22;2117;47.972;7.830;2023-11-21T17:36:04;9.20;99.90
4207;DHT22;2117;47.972;7.830;2023-11-21T17:38:30;9.20;99.90
4207;DHT22;2117;47.972;7.830;2023-11-21T17:40:55;9.20;99.90
4207;DHT22;2117;47.972;7.830;2023-11-21T17:43:21;9.20;99.90
4207;DHT22;2117;47.972;7.830;2023-11-21T17:45:47;9.20;99.90
4207;DHT22;2117;47.972;7.830;2023-11-21T17:48:14;9.20;99.90
4207;DHT22;2117;47.972;7.830;2023-11-21T17:50:39;9.20;99.90
4207;DHT22;2117;47.972;7.830;2023-11-21T17:53:05;9.20;99.90
4207;DHT22;2117;47.972;7.830;2023-11-21T17:55:32;9.20;99.90
4207;DHT22;2117;47.972;7.830;2023-11-21T17:57:57;9.20;99.90
4207;DHT22;2117;47.972;7.830;2023-11-21T18:00:23;9.10;99.90
4207;DHT22;2117;47.972;7.830;2023-11-21T18:02:55;9.20;99.90
4207;DHT22;2117;47.972;7.830;2023-11-21T18:05:21;9.20;99.90
4207;DHT22;2117;47.972;7.830;2023-11-21T18:07:51;9.20;99.90
4207;DHT22;2117;47.972;7.830;2023-11-21T18:10:17;9.20;99.90
4207;DHT22;2117;47.972;7.830;2023-11-21T18:12:43;9.20;99.90
4207;DHT22;2117;47.972;7.830;2023-11-21T18:15:09;9.20;99.90
4207;DHT22;2117;47.972;7.830;2023-11-21T18:17:35;9.20;99.90
4207;DHT22;2117;47.972;7.830;2023-11-21T18:20:01;9.20;99.90
4207;DHT22;2117;47.972;7.830;2023-11-21T18:22:26;9.20;99.90
4207;DHT22;2117;47.972;7.830;2023-11-21T18:24:53;9.10;99.90
4207;DHT22;2117;47.972;7.830;2023-11-21T18:27:19;9.20;99.90
4207;DHT22;2117;47.972;7.830;2023-11-21T18:29:46;9.20;99.90
4207;DHT22;2117;47.972;7.830;2023-11-21T18:32:12;9.20;99.90
4207;DHT22;2117;47.972;7.830;2023-11-21T18:34:41;9.20;99.90
4207;DHT22;2117;47.972;7.830;2023-11-21T18:37:08;9.20;99.90
4207;DHT22;2117;47.972;7.830;2023-11-21T18:39:34;9.20;99.90
4207;DHT22;2117;47.972;7.830;2023-11-21T18:41:59;9.20;99.90
4207;DHT22;2117;47.972;7.830;2023-11-21T18:44:25;9.20;99.90
4207;DHT22;2117;47.972;7.830;2023-11-21T18:46:51;9.10;99.90
4207;DHT22;2117;47.972;7.830;2023-11-21T18:49:17;9.10;99.90
4207;DHT22;2117;47.972;7.830;2023-11-21T18:51:46;9.20;99.90
4207;DHT22;2117;47.972;7.830;2023-11-21T18:54:13;9.10;99.90
4207;DHT22;2117;47.972;7.830;2023-11-21T18:56:39;9.10;99.90
4207;DHT22;2117;47.972;7.830;2023-11-21T18:59:06;9.10;99.90
4207;DHT22;2117;47.972;7.830;2023-11-21T19:01:33;9.10;99.90
4207;DHT22;2117;47.972;7.830;2023-11-21T19:03:59;9.10;99.90
4207;DHT22;2117;47.972;7.830;2023-11-21T19:06:25;9.20;99.90
4207;DHT22;2117;47.972;7.830;2023-11-21T19:08:52;9.20;99.90
4207;DHT22;2117;47.972;7.830;2023-11-21T19:11:17;9.20;99.90
4207;DHT22;2117;47.972;7.830;2023-11-21T19:13:43;9.10;99.90
4207;DHT22;2117;47.972;7.830;2023-11-21T19:16:09;9.10;99.90
4207;DHT22;2117;47.972;7.830;2023-11-21T19:18:36;9.10;99.90
4207;DHT22;2117;47.972;7.830;2023-11-21T19:21:01;9.10;99.90
4207;DHT22;2117;47.972;7.830;2023-11-21T19:23:27;9.10;99.90
4207;DHT22;2117;47.972;7.830;2023-11-21T19:25:52;9.10;99.90
4207;DHT22;2117;47.972;7.830;2023-11-21T19:28:18;9.10;99.90
4207;DHT22;2117;47.972;7.830;2023-11-21T19:30:43;9.10;99.90
4207;DHT22;2117;47.972;7.830;2023-11-21T19:33:09;9.10;99.90
4207;DHT22;2117;47.972;7.830;2023-11-21T19:35:36;9.10;99.90
4207;DHT22;2117;47.972;7.830;2023-11-21T19:38:05;9.10;99.90
4207;DHT22;2117;47.972;7.830;2023-11-21T19:40:31;9.10;99.90
4207;DHT22;2117;47.972;7.830;2023-11-21T19:42:59;9.00;99.90
4207;DHT22;2117;47.972;7.830;2023-11-21T19:45:25;9.00;99.90
4207;DHT22;2117;47.972;7.830;2023-11-21T19:47:53;9.00;99.90
4207;DHT22;2117;47.972;7.830;2023-11-21T19:50:18;9.00;99.90
4207;DHT22;2117;47.972;7.830;2023-11-21T19:52:44;9.00;99.90
4207;DHT22;2117;47.972;7.830;2023-11-21T19:55:10;9.00;99.90
4207;DHT22;2117;47.972;7.830;2023-11-21T19:57:37;9.00;99.90
4207;DHT22;2117;47.972;7.830;2023-11-21T20:00:05;9.00;99.90
4207;DHT22;2117;47.972;7.830;2023-11-21T20:02:31;9.00;99.90
4207;DHT22;2117;47.972;7.830;2023-11-21T20:04:59;9.00;99.90
4207;DHT22;2117;47.972;7.830;2023-11-21T20:07:25;8.90;99.90
4207;DHT22;2117;47.972;7.830;2023-11-21T20:09:51;8.90;99.90
4207;DHT22;2117;47.972;7.830;2023-11-21T20:12:18;8.90;99.90
4207;DHT22;2117;47.972;7.830;2023-11-21T20:14:44;8.90;99.90
4207;DHT22;2117;47.972;7.830;2023-11-21T20:17:13;8.90;99.90
4207;DHT22;2117;47.972;7.830;2023-11-21T20:19:40;8.90;99.90
4207;DHT22;2117;47.972;7.830;2023-11-21T20:22:07;8.90;99.90
4207;DHT22;2117;47.972;7.830;2023-11-21T20:24:33;8.90;99.90
4207;DHT22;2117;47.972;7.830;2023-11-21T20:27:02;8.80;99.90
4207;DHT22;2117;47.972;7.830;2023-11-21T20:29:30;8.80;99.90
4207;DHT22;2117;47.972;7.830;2023-11-21T20:31:57;8.80;99.90
4207;DHT22;2117;47.972;7.830;2023-11-21T20:34:23;8.80;99.90
4207;DHT22;2117;47.972;7.830;2023-11-21T20:36:48;8.80;99.90
4207;DHT22;2117;47.972;7.830;2023-11-21T20:39:15;8.90;99.90
4207;DHT22;2117;47.972;7.830;2023-11-21T20:41:41;8.90;99.90
4207;DHT22;2117;47.972;7.830;2023-11-21T20:44:07;8.90;99.90
4207;DHT22;2117;47.972;7.830;2023-11-21T20:46:39;8.90;99.90
4207;DHT22;2117;47.972;7.830;2023-11-21T20:49:08;9.00;99.90
4207;DHT22;2117;47.972;7.830;2023-11-21T20:51:34;8.90;99.90
4207;DHT22;2117;47.972;7.830;2023-11-21T20:54:00;9.00;99.90
4207;DHT22;2117;47.972;7.830;2023-11-21T20:56:26;8.90;99.90
4207;DHT22;2117;47.972;7.830;2023-11-21T20:58:51;8.90;99.90
4207;DHT22;2117;47.972;7.830;2023-11-21T21:01:17;8.90;99.90
4207;DHT22;2117;47.972;7.830;2023-11-21T21:03:42;8.90;99.90
4207;DHT22;2117;47.972;7.830;2023-11-21T21:06:11;8.90;99.90
4207;DHT22;2117;47.972;7.830;2023-11-21T21:08:37;8.90;99.90
4207;DHT22;2117;47.972;7.830;2023-11-21T21:11:03;8.90;99.90
4207;DHT22;2117;47.972;7.830;2023-11-21T21:13:28;8.90;99.90
4207;DHT22;2117;47.972;7.830;2023-11-21T21:15:54;9.00;99.90
4207;DHT22;2117;47.972;7.830;2023-11-21T21:18:20;8.90;99.90
4207;DHT22;2117;47.972;7.830;2023-11-21T21:20:47;9.00;99.90
4207;DHT22;2117;47.972;7.830;2023-11-21T21:23:14;9.00;99.90
4207;DHT22;2117;47.972;7.830;2023-11-21T21:25:40;8.90;99.90
4207;DHT22;2117;47.972;7.830;2023-11-21T21:28:06;8.90;99.90
4207;DHT22;2117;47.972;7.830;2023-11-21T21:30:31;8.90;99.90
4207;DHT22;2117;47.972;7.830;2023-11-21T21:32:57;8.90;99.90
4207;DHT22;2117;47.972;7.830;2023-11-21T21:35:25;8.90;99.90
4207;DHT22;2117;47.972;7.830;2023-11-21T21:37:54;8.90;99.90
4207;DHT22;2117;47.972;7.830;2023-11-21T21:40:23;8.90;99.90
4207;DHT22;2117;47.972;7.830;2023-11-21T21:42:48;8.90;99.90
4207;DHT22;2117;47.972;7.830;2023-11-21T21:45:14;8.90;99.90
4207;DHT22;2117;47.972;7.830;2023-11-21T21:47:40;8.90;99.90
4207;DHT22;2117;47.972;7.830;2023-11-21T21:50:05;8.90;99.90
4207;DHT22;2117;47.972;7.830;2023-11-21T21:52:35;8.90;99.90
4207;DHT22;2117;47.972;7.830;2023-11-21T21:55:02;8.80;99.90
4207;DHT22;2117;47.972;7.830;2023-11-21T21:57:28;8.80;99.90
4207;DHT22;2117;47.972;7.830;2023-11-21T21:59:53;8.80;99.90
4207;DHT22;2117;47.972;7.830;2023-11-21T22:02:19;8.90;99.90
4207;DHT22;2117;47.972;7.830;2023-11-21T22:04:45;8.80;99.90
4207;DHT22;2117;47.972;7.830;2023-11-21T22:07:10;8.80;99.90
4207;DHT22;2117;47.972;7.830;2023-11-21T22:09:36;8.80;99.90
4207;DHT22;2117;47.972;7.830;2023-11-21T22:12:02;8.80;99.90
4207;DHT22;2117;47.972;7.830;2023-11-21T22:14:28;8.90;99.90
4207;DHT22;2117;47.972;7.830;2023-11-21T22:16:53;8.80;99.90
4207;DHT22;2117;47.972;7.830;2023-11-21T22:19:19;8.90;99.90
4207;DHT22;2117;47.972;7.830;2023-11-21T22:21:45;8.80;99.90
4207;DHT22;2117;47.972;7.830;2023-11-21T22:24:11;8.80;99.90
4207;DHT22;2117;47.972;7.830;2023-11-21T22:26:36;8.80;99.90
4207;DHT22;2117;47.972;7.830;2023-11-21T22:29:02;8.80;99.90
4207;DHT22;2117;47.972;7.830;2023-11-21T22:31:27;8.80;99.90
4207;DHT22;2117;47.972;7.830;2023-11-21T22:33:53;8.80;99.90
4207;DHT22;2117;47.972;7.830;2023-11-21T22:36:20;8.80;99.90
4207;DHT22;2117;47.972;7.830;2023-11-21T22:38:45;8.80;99.90
4207;DHT22;2117;47.972;7.830;2023-11-21T22:41:11;8.70;99.90
4207;DHT22;2117;47.972;7.830;2023-11-21T22:43:37;8.80;99.90
4207;DHT22;2117;47.972;7.830;2023-11-21T22:46:03;8.70;99.90
4207;DHT22;2117;47.972;7.830;2023-11-21T22:48:29;8.70;99.90
4207;DHT22;2117;47.972;7.830;2023-11-21T22:50:54;8.70;99.90
4207;DHT22;2117;47.972;7.830;2023-11-21T22:53:20;8.70;99.90
4207;DHT22;2117;47.972;7.830;2023-11-21T22:55:46;8.60;99.90
4207;DHT22;2117;47.972;7.830;2023-11-21T22:58:11;8.70;99.90
4207;DHT22;2117;47.972;7.830;2023-11-21T23:00:37;8.70;99.90
4207;DHT22;2117;47.972;7.830;2023-11-21T23:03:02;8.70;99.90
4207;DHT22;2117;47.972;7.830;2023-11-21T23:05:30;8.70;99.90
4207;DHT22;2117;47.972;7.830;2023-11-21T23:07:56;8.70;99.90
4207;DHT22;2117;47.972;7.830;2023-11-21T23:10:21;8.70;99.90
4207;DHT22;2117;47.972;7.830;2023-11-21T23:12:48;8.70;99.90
4207;DHT22;2117;47.972;7.830;2023-11-21T23:15:14;8.70;99.90
4207;DHT22;2117;47.972;7.830;2023-11-21T23:17:40;8.70;99.90
4207;DHT22;2117;47.972;7.830;2023-11-21T23:20:07;8.70;99.90
4207;DHT22;2117;47.972;7.830;2023-11-21T23:22:36;8.70;99.90
4207;DHT22;2117;47.972;7.830;2023-11-21T23:25:05;8.60;99.90
4207;DHT22;2117;47.972;7.830;2023-11-21T23:27:31;8.70;99.90
4207;DHT22;2117;47.972;7.830;2023-11-21T23:29:57;8.60;99.90
4207;DHT22;2117;47.972;7.830;2023-11-21T23:32:22;8.60;99.90
4207;DHT22;2117;47.972;7.830;2023-11-21T23:34:49;8.70;99.90
4207;DHT22;2117;47.972;7.830;2023-11-21T23:37:14;8.70;99.90
4207;DHT22;2117;47.972;7.830;2023-11-21T23:39:40;8.70;99.90
4207;DHT22;2117;47.972;7.830;2023-11-21T23:42:06;8.70;99.90
4207;DHT22;2117;47.972;7.830;2023-11-21T23:44:31;8.70;99.90
4207;DHT22;2117;47.972;7.830;2023-11-21T23:46:57;8.70;99.90
4207;DHT22;2117;47.972;7.830;2023-11-21T23:49:24;8.70;99.90
4207;DHT22;2117;47.972;7.830;2023-11-21T23:51:51;8.70;99.90
4207;DHT22;2117;47.972;7.830;2023-11-21T23:54:17;8.70;99.90
4207;DHT22;2117;47.972;7.830;2023-11-21T23:56:43;8.80;99.90
4207;DHT22;2117;47.972;7.830;2023-11-21T23:59:09;8.80;99.90
